sensor_id;sensor_type;location;lat;lon;timestamp;P1;P2;P0
64138;PMS5003;50435;43.700;-79.318;2023-02-08T00:01:05;27;27;
64138;PMS5003;50435;43.700;-79.318;2023-02-08T00:03:34;28;24;
64138;PMS5003;50435;43.700;-79.318;2023-02-08T00:06:01;32;30;
64138;PMS5003;50435;43.700;-79.318;2023-02-08T00:08:30;27;25;
64138;PMS5003;50435;43.700;-79.318;2023-02-08T00:10:58;33;27;
64138;PMS5003;50435;43.700;-79.318;2023-02-08T00:13:26;30;28;
64138;PMS5003;50435;43.700;-79.318;2023-02-08T00:15:54;33;28;
64138;PMS5003;50435;43.700;-79.318;2023-02-08T00:18:21;35;30;
64138;PMS5003;50435;43.700;-79.318;2023-02-08T00:20:49;34;30;
64138;PMS5003;50435;43.700;-79.318;2023-02-08T00:23:17;33;29;
64138;PMS5003;50435;43.700;-79.318;2023-02-08T00:25:45;26;20;
64138;PMS5003;50435;43.700;-79.318;2023-02-08T00:28:13;30;29;
64138;PMS5003;50435;43.700;-79.318;2023-02-08T00:30:42;28;24;
64138;PMS5003;50435;43.700;-79.318;2023-02-08T00:33:10;29;23;
64138;PMS5003;50435;43.700;-79.318;2023-02-08T00:35:38;28;28;
64138;PMS5003;50435;43.700;-79.318;2023-02-08T00:38:06;32;29;
64138;PMS5003;50435;43.700;-79.318;2023-02-08T00:40:33;25;23;
64138;PMS5003;50435;43.700;-79.318;2023-02-08T00:43:01;32;30;
64138;PMS5003;50435;43.700;-79.318;2023-02-08T00:45:31;27;27;
64138;PMS5003;50435;43.700;-79.318;2023-02-08T00:47:59;36;32;
64138;PMS5003;50435;43.700;-79.318;2023-02-08T00:50:26;30;27;
64138;PMS5003;50435;43.700;-79.318;2023-02-08T00:52:54;26;25;
64138;PMS5003;50435;43.700;-79.318;2023-02-08T00:55:21;33;31;
64138;PMS5003;50435;43.700;-79.318;2023-02-08T00:57:49;30;27;
64138;PMS5003;50435;43.700;-79.318;2023-02-08T01:00:16;34;31;
64138;PMS5003;50435;43.700;-79.318;2023-02-08T01:02:44;35;28;
64138;PMS5003;50435;43.700;-79.318;2023-02-08T01:05:12;28;26;
64138;PMS5003;50435;43.700;-79.318;2023-02-08T01:07:39;35;33;
64138;PMS5003;50435;43.700;-79.318;2023-02-08T01:10:07;33;29;
64138;PMS5003;50435;43.700;-79.318;2023-02-08T01:12:34;35;29;
64138;PMS5003;50435;43.700;-79.318;2023-02-08T01:15:01;28;25;
64138;PMS5003;50435;43.700;-79.318;2023-02-08T01:17:30;31;26;
64138;PMS5003;50435;43.700;-79.318;2023-02-08T01:19:57;29;26;
64138;PMS5003;50435;43.700;-79.318;2023-02-08T01:22:25;37;33;
64138;PMS5003;50435;43.700;-79.318;2023-02-08T01:24:55;36;33;
64138;PMS5003;50435;43.700;-79.318;2023-02-08T01:27:22;33;32;
64138;PMS5003;50435;43.700;-79.318;2023-02-08T01:29:49;32;29;
64138;PMS5003;50435;43.700;-79.318;2023-02-08T01:32:16;33;29;
64138;PMS5003;50435;43.700;-79.318;2023-02-08T01:34:44;31;29;
64138;PMS5003;50435;43.700;-79.318;2023-02-08T01:37:11;31;31;
64138;PMS5003;50435;43.700;-79.318;2023-02-08T01:39:38;32;28;
64138;PMS5003;50435;43.700;-79.318;2023-02-08T01:42:08;32;28;
64138;PMS5003;50435;43.700;-79.318;2023-02-08T01:45:20;32;32;
64138;PMS5003;50435;43.700;-79.318;2023-02-08T01:47:54;31;31;
64138;PMS5003;50435;43.700;-79.318;2023-02-08T01:50:28;41;35;
64138;PMS5003;50435;43.700;-79.318;2023-02-08T01:52:59;33;28;
64138;PMS5003;50435;43.700;-79.318;2023-02-08T01:55:29;33;28;
64138;PMS5003;50435;43.700;-79.318;2023-02-08T01:58:01;40;40;
64138;PMS5003;50435;43.700;-79.318;2023-02-08T02:00:32;33;32;
64138;PMS5003;50435;43.700;-79.318;2023-02-08T02:03:00;27;27;
64138;PMS5003;50435;43.700;-79.318;2023-02-08T02:05:31;35;34;
64138;PMS5003;50435;43.700;-79.318;2023-02-08T02:08:01;37;34;
64138;PMS5003;50435;43.700;-79.318;2023-02-08T02:10:29;34;28;
64138;PMS5003;50435;43.700;-79.318;2023-02-08T02:13:01;33;27;
64138;PMS5003;50435;43.700;-79.318;2023-02-08T02:15:30;30;29;
64138;PMS5003;50435;43.700;-79.318;2023-02-08T02:17:58;32;28;
64138;PMS5003;50435;43.700;-79.318;2023-02-08T02:20:28;31;31;
64138;PMS5003;50435;43.700;-79.318;2023-02-08T02:23:12;33;28;
64138;PMS5003;50435;43.700;-79.318;2023-02-08T02:26:04;34;33;
64138;PMS5003;50435;43.700;-79.318;2023-02-08T02:28:51;32;31;
64138;PMS5003;50435;43.700;-79.318;2023-02-08T02:31:42;33;30;
64138;PMS5003;50435;43.700;-79.318;2023-02-08T02:34:20;30;28;
64138;PMS5003;50435;43.700;-79.318;2023-02-08T02:36:57;35;29;
64138;PMS5003;50435;43.700;-79.318;2023-02-08T02:39:31;30;28;
64138;PMS5003;50435;43.700;-79.318;2023-02-08T02:42:06;29;26;
64138;PMS5003;50435;43.700;-79.318;2023-02-08T02:44:42;31;30;
64138;PMS5003;50435;43.700;-79.318;2023-02-08T02:47:20;30;29;
64138;PMS5003;50435;43.700;-79.318;2023-02-08T02:49:57;33;30;
64138;PMS5003;50435;43.700;-79.318;2023-02-08T02:52:31;31;30;
64138;PMS5003;50435;43.700;-79.318;2023-02-08T02:55:06;34;32;
64138;PMS5003;50435;43.700;-79.318;2023-02-08T02:57:39;28;28;
64138;PMS5003;50435;43.700;-79.318;2023-02-08T03:00:10;23;23;
64138;PMS5003;50435;43.700;-79.318;2023-02-08T03:02:45;26;25;
64138;PMS5003;50435;43.700;-79.318;2023-02-08T03:05:13;28;24;
64138;PMS5003;50435;43.700;-79.318;2023-02-08T03:07:45;24;24;
64138;PMS5003;50435;43.700;-79.318;2023-02-08T03:10:28;31;24;
64138;PMS5003;50435;43.700;-79.318;2023-02-08T03:13:08;29;27;
64138;PMS5003;50435;43.700;-79.318;2023-02-08T03:15:49;22;22;
64138;PMS5003;50435;43.700;-79.318;2023-02-08T03:18:28;32;24;
64138;PMS5003;50435;43.700;-79.318;2023-02-08T03:21:03;25;23;
64138;PMS5003;50435;43.700;-79.318;2023-02-08T03:23:37;20;19;
64138;PMS5003;50435;43.700;-79.318;2023-02-08T03:26:09;21;21;
64138;PMS5003;50435;43.700;-79.318;2023-02-08T03:28:47;23;22;
64138;PMS5003;50435;43.700;-79.318;2023-02-08T03:31:22;23;21;
64138;PMS5003;50435;43.700;-79.318;2023-02-08T03:33:56;25;24;
64138;PMS5003;50435;43.700;-79.318;2023-02-08T03:36:28;22;21;
64138;PMS5003;50435;43.700;-79.318;2023-02-08T03:39:02;24;23;
64138;PMS5003;50435;43.700;-79.318;2023-02-08T03:41:37;23;22;
64138;PMS5003;50435;43.700;-79.318;2023-02-08T03:44:09;23;21;
64138;PMS5003;50435;43.700;-79.318;2023-02-08T03:46:40;21;20;
64138;PMS5003;50435;43.700;-79.318;2023-02-08T03:49:12;21;21;
64138;PMS5003;50435;43.700;-79.318;2023-02-08T03:51:43;21;21;
64138;PMS5003;50435;43.700;-79.318;2023-02-08T03:54:12;21;20;
64138;PMS5003;50435;43.700;-79.318;2023-02-08T03:56:44;21;21;
64138;PMS5003;50435;43.700;-79.318;2023-02-08T03:59:19;21;20;
64138;PMS5003;50435;43.700;-79.318;2023-02-08T04:01:50;20;18;
64138;PMS5003;50435;43.700;-79.318;2023-02-08T04:04:22;18;18;
64138;PMS5003;50435;43.700;-79.318;2023-02-08T04:06:52;20;20;
64138;PMS5003;50435;43.700;-79.318;2023-02-08T04:09:19;22;22;
64138;PMS5003;50435;43.700;-79.318;2023-02-08T04:11:47;21;20;
64138;PMS5003;50435;43.700;-79.318;2023-02-08T04:14:14;22;21;
64138;PMS5003;50435;43.700;-79.318;2023-02-08T04:16:42;23;20;
64138;PMS5003;50435;43.700;-79.318;2023-02-08T04:19:09;25;23;
64138;PMS5003;50435;43.700;-79.318;2023-02-08T04:21:36;23;22;
64138;PMS5003;50435;43.700;-79.318;2023-02-08T04:24:04;22;22;
64138;PMS5003;50435;43.700;-79.318;2023-02-08T04:26:32;21;19;
64138;PMS5003;50435;43.700;-79.318;2023-02-08T04:28:59;21;19;
64138;PMS5003;50435;43.700;-79.318;2023-02-08T04:31:27;29;23;
64138;PMS5003;50435;43.700;-79.318;2023-02-08T04:33:54;24;22;
64138;PMS5003;50435;43.700;-79.318;2023-02-08T04:36:21;23;18;
64138;PMS5003;50435;43.700;-79.318;2023-02-08T04:38:48;23;18;
64138;PMS5003;50435;43.700;-79.318;2023-02-08T04:41:16;25;22;
64138;PMS5003;50435;43.700;-79.318;2023-02-08T04:43:44;20;14;
64138;PMS5003;50435;43.700;-79.318;2023-02-08T04:46:11;16;14;
64138;PMS5003;50435;43.700;-79.318;2023-02-08T04:48:39;18;15;
64138;PMS5003;50435;43.700;-79.318;2023-02-08T04:51:06;15;14;
64138;PMS5003;50435;43.700;-79.318;2023-02-08T04:53:33;16;14;
64138;PMS5003;50435;43.700;-79.318;2023-02-08T04:56:01;18;15;
64138;PMS5003;50435;43.700;-79.318;2023-02-08T04:58:29;18;13;
64138;PMS5003;50435;43.700;-79.318;2023-02-08T05:00:57;20;15;
64138;PMS5003;50435;43.700;-79.318;2023-02-08T05:03:24;18;15;
64138;PMS5003;50435;43.700;-79.318;2023-02-08T05:05:56;18;15;
64138;PMS5003;50435;43.700;-79.318;2023-02-08T05:08:24;19;18;
64138;PMS5003;50435;43.700;-79.318;2023-02-08T05:10:51;14;14;
64138;PMS5003;50435;43.700;-79.318;2023-02-08T05:13:19;19;18;
64138;PMS5003;50435;43.700;-79.318;2023-02-08T05:15:46;18;15;
64138;PMS5003;50435;43.700;-79.318;2023-02-08T05:18:14;14;14;
64138;PMS5003;50435;43.700;-79.318;2023-02-08T05:20:42;13;13;
64138;PMS5003;50435;43.700;-79.318;2023-02-08T05:23:09;24;19;
64138;PMS5003;50435;43.700;-79.318;2023-02-08T05:25:37;18;15;
64138;PMS5003;50435;43.700;-79.318;2023-02-08T05:28:04;21;20;
64138;PMS5003;50435;43.700;-79.318;2023-02-08T05:30:32;15;14;
64138;PMS5003;50435;43.700;-79.318;2023-02-08T05:32:59;15;15;
64138;PMS5003;50435;43.700;-79.318;2023-02-08T05:35:27;19;18;
64138;PMS5003;50435;43.700;-79.318;2023-02-08T05:37:55;20;15;
64138;PMS5003;50435;43.700;-79.318;2023-02-08T05:40:22;14;14;
64138;PMS5003;50435;43.700;-79.318;2023-02-08T05:42:49;19;16;
64138;PMS5003;50435;43.700;-79.318;2023-02-08T05:45:17;16;16;
64138;PMS5003;50435;43.700;-79.318;2023-02-08T05:47:44;16;15;
64138;PMS5003;50435;43.700;-79.318;2023-02-08T05:50:12;18;18;
64138;PMS5003;50435;43.700;-79.318;2023-02-08T05:52:40;20;15;
64138;PMS5003;50435;43.700;-79.318;2023-02-08T05:55:08;21;21;
64138;PMS5003;50435;43.700;-79.318;2023-02-08T05:57:35;19;16;
64138;PMS5003;50435;43.700;-79.318;2023-02-08T06:00:03;22;18;
64138;PMS5003;50435;43.700;-79.318;2023-02-08T06:02:31;19;19;
64138;PMS5003;50435;43.700;-79.318;2023-02-08T06:04:58;19;18;
64138;PMS5003;50435;43.700;-79.318;2023-02-08T06:07:26;26;22;
64138;PMS5003;50435;43.700;-79.318;2023-02-08T06:09:53;21;19;
64138;PMS5003;50435;43.700;-79.318;2023-02-08T06:12:20;27;22;
64138;PMS5003;50435;43.700;-79.318;2023-02-08T06:14:48;22;20;
64138;PMS5003;50435;43.700;-79.318;2023-02-08T06:17:15;28;24;
64138;PMS5003;50435;43.700;-79.318;2023-02-08T06:19:42;24;22;
64138;PMS5003;50435;43.700;-79.318;2023-02-08T06:22:09;28;26;
64138;PMS5003;50435;43.700;-79.318;2023-02-08T06:24:36;28;28;
64138;PMS5003;50435;43.700;-79.318;2023-02-08T06:27:04;27;24;
64138;PMS5003;50435;43.700;-79.318;2023-02-08T06:29:32;29;28;
64138;PMS5003;50435;43.700;-79.318;2023-02-08T06:32:00;26;24;
64138;PMS5003;50435;43.700;-79.318;2023-02-08T06:34:27;27;26;
64138;PMS5003;50435;43.700;-79.318;2023-02-08T06:36:55;25;23;
64138;PMS5003;50435;43.700;-79.318;2023-02-08T06:39:22;28;24;
64138;PMS5003;50435;43.700;-79.318;2023-02-08T06:41:49;30;28;
64138;PMS5003;50435;43.700;-79.318;2023-02-08T06:44:17;27;27;
64138;PMS5003;50435;43.700;-79.318;2023-02-08T06:46:44;29;24;
64138;PMS5003;50435;43.700;-79.318;2023-02-08T06:49:11;31;30;
64138;PMS5003;50435;43.700;-79.318;2023-02-08T06:51:38;30;30;
64138;PMS5003;50435;43.700;-79.318;2023-02-08T06:54:06;32;29;
64138;PMS5003;50435;43.700;-79.318;2023-02-08T06:56:33;32;31;
64138;PMS5003;50435;43.700;-79.318;2023-02-08T06:59:01;24;23;
64138;PMS5003;50435;43.700;-79.318;2023-02-08T07:01:28;26;26;
64138;PMS5003;50435;43.700;-79.318;2023-02-08T07:03:56;27;27;
64138;PMS5003;50435;43.700;-79.318;2023-02-08T07:06:23;36;31;
64138;PMS5003;50435;43.700;-79.318;2023-02-08T07:08:50;36;31;
64138;PMS5003;50435;43.700;-79.318;2023-02-08T07:11:18;31;30;
64138;PMS5003;50435;43.700;-79.318;2023-02-08T07:13:47;31;27;
64138;PMS5003;50435;43.700;-79.318;2023-02-08T07:16:16;31;27;
64138;PMS5003;50435;43.700;-79.318;2023-02-08T07:18:44;29;27;
64138;PMS5003;50435;43.700;-79.318;2023-02-08T07:21:12;28;24;
64138;PMS5003;50435;43.700;-79.318;2023-02-08T07:23:41;32;30;
64138;PMS5003;50435;43.700;-79.318;2023-02-08T07:26:09;36;32;
64138;PMS5003;50435;43.700;-79.318;2023-02-08T07:28:37;37;29;
64138;PMS5003;50435;43.700;-79.318;2023-02-08T07:31:06;30;28;
64138;PMS5003;50435;43.700;-79.318;2023-02-08T07:33:35;28;27;
64138;PMS5003;50435;43.700;-79.318;2023-02-08T07:36:04;35;27;
64138;PMS5003;50435;43.700;-79.318;2023-02-08T07:38:32;28;27;
64138;PMS5003;50435;43.700;-79.318;2023-02-08T07:41:01;31;28;
64138;PMS5003;50435;43.700;-79.318;2023-02-08T07:43:29;34;30;
64138;PMS5003;50435;43.700;-79.318;2023-02-08T07:45:57;31;27;
64138;PMS5003;50435;43.700;-79.318;2023-02-08T07:48:24;31;27;
64138;PMS5003;50435;43.700;-79.318;2023-02-08T07:50:51;33;29;
64138;PMS5003;50435;43.700;-79.318;2023-02-08T07:53:18;33;30;
64138;PMS5003;50435;43.700;-79.318;2023-02-08T07:55:46;32;29;
64138;PMS5003;50435;43.700;-79.318;2023-02-08T07:58:13;31;28;
64138;PMS5003;50435;43.700;-79.318;2023-02-08T08:00:41;31;29;
64138;PMS5003;50435;43.700;-79.318;2023-02-08T08:03:09;28;27;
64138;PMS5003;50435;43.700;-79.318;2023-02-08T08:05:36;33;31;
64138;PMS5003;50435;43.700;-79.318;2023-02-08T08:08:06;32;29;
64138;PMS5003;50435;43.700;-79.318;2023-02-08T08:10:33;30;28;
64138;PMS5003;50435;43.700;-79.318;2023-02-08T08:13:00;33;29;
64138;PMS5003;50435;43.700;-79.318;2023-02-08T08:15:28;28;27;
64138;PMS5003;50435;43.700;-79.318;2023-02-08T08:17:56;34;30;
64138;PMS5003;50435;43.700;-79.318;2023-02-08T08:20:24;33;29;
64138;PMS5003;50435;43.700;-79.318;2023-02-08T08:22:52;26;25;
64138;PMS5003;50435;43.700;-79.318;2023-02-08T08:25:19;29;26;
64138;PMS5003;50435;43.700;-79.318;2023-02-08T08:27:47;27;25;
64138;PMS5003;50435;43.700;-79.318;2023-02-08T08:30:15;32;24;
64138;PMS5003;50435;43.700;-79.318;2023-02-08T08:32:43;26;23;
64138;PMS5003;50435;43.700;-79.318;2023-02-08T08:35:10;29;28;
64138;PMS5003;50435;43.700;-79.318;2023-02-08T08:37:38;25;23;
64138;PMS5003;50435;43.700;-79.318;2023-02-08T08:40:06;30;23;
64138;PMS5003;50435;43.700;-79.318;2023-02-08T08:42:35;29;25;
64138;PMS5003;50435;43.700;-79.318;2023-02-08T08:45:03;22;22;
64138;PMS5003;50435;43.700;-79.318;2023-02-08T08:47:31;27;27;
64138;PMS5003;50435;43.700;-79.318;2023-02-08T08:49:59;25;25;
64138;PMS5003;50435;43.700;-79.318;2023-02-08T08:52:27;27;25;
64138;PMS5003;50435;43.700;-79.318;2023-02-08T08:54:54;23;22;
64138;PMS5003;50435;43.700;-79.318;2023-02-08T08:57:22;26;23;
64138;PMS5003;50435;43.700;-79.318;2023-02-08T08:59:49;22;21;
64138;PMS5003;50435;43.700;-79.318;2023-02-08T09:02:17;29;29;
64138;PMS5003;50435;43.700;-79.318;2023-02-08T09:04:44;27;23;
64138;PMS5003;50435;43.700;-79.318;2023-02-08T09:07:11;25;25;
64138;PMS5003;50435;43.700;-79.318;2023-02-08T09:09:39;27;22;
64138;PMS5003;50435;43.700;-79.318;2023-02-08T09:12:06;25;23;
64138;PMS5003;50435;43.700;-79.318;2023-02-08T09:14:34;26;23;
64138;PMS5003;50435;43.700;-79.318;2023-02-08T09:17:01;22;21;
64138;PMS5003;50435;43.700;-79.318;2023-02-08T09:19:30;26;20;
64138;PMS5003;50435;43.700;-79.318;2023-02-08T09:21:57;28;26;
64138;PMS5003;50435;43.700;-79.318;2023-02-08T09:24:25;26;22;
64138;PMS5003;50435;43.700;-79.318;2023-02-08T09:26:53;29;23;
64138;PMS5003;50435;43.700;-79.318;2023-02-08T09:29:20;26;25;
64138;PMS5003;50435;43.700;-79.318;2023-02-08T09:31:47;26;20;
64138;PMS5003;50435;43.700;-79.318;2023-02-08T09:34:14;20;20;
64138;PMS5003;50435;43.700;-79.318;2023-02-08T09:36:42;27;24;
64138;PMS5003;50435;43.700;-79.318;2023-02-08T09:39:11;22;21;
64138;PMS5003;50435;43.700;-79.318;2023-02-08T09:41:47;24;21;
64138;PMS5003;50435;43.700;-79.318;2023-02-08T09:44:31;23;23;
64138;PMS5003;50435;43.700;-79.318;2023-02-08T09:47:05;20;18;
64138;PMS5003;50435;43.700;-79.318;2023-02-08T09:49:43;20;19;
64138;PMS5003;50435;43.700;-79.318;2023-02-08T09:52:21;18;18;
64138;PMS5003;50435;43.700;-79.318;2023-02-08T09:54:54;28;25;
64138;PMS5003;50435;43.700;-79.318;2023-02-08T09:57:25;25;21;
64138;PMS5003;50435;43.700;-79.318;2023-02-08T09:59:57;21;21;
64138;PMS5003;50435;43.700;-79.318;2023-02-08T10:02:29;18;16;
64138;PMS5003;50435;43.700;-79.318;2023-02-08T10:04:59;28;22;
64138;PMS5003;50435;43.700;-79.318;2023-02-08T10:07:36;21;20;
64138;PMS5003;50435;43.700;-79.318;2023-02-08T10:10:07;20;18;
64138;PMS5003;50435;43.700;-79.318;2023-02-08T10:12:41;25;20;
64138;PMS5003;50435;43.700;-79.318;2023-02-08T10:15:22;24;21;
64138;PMS5003;50435;43.700;-79.318;2023-02-08T10:18:03;23;21;
64138;PMS5003;50435;43.700;-79.318;2023-02-08T10:20:51;21;19;
64138;PMS5003;50435;43.700;-79.318;2023-02-08T10:23:33;19;17;
64138;PMS5003;50435;43.700;-79.318;2023-02-08T10:26:15;25;18;
64138;PMS5003;50435;43.700;-79.318;2023-02-08T10:28:56;25;20;
64138;PMS5003;50435;43.700;-79.318;2023-02-08T10:32:22;20;20;
64138;PMS5003;50435;43.700;-79.318;2023-02-08T10:34:57;18;18;
64138;PMS5003;50435;43.700;-79.318;2023-02-08T10:37:28;20;18;
64138;PMS5003;50435;43.700;-79.318;2023-02-08T10:39:57;22;19;
64138;PMS5003;50435;43.700;-79.318;2023-02-08T10:42:33;24;21;
64138;PMS5003;50435;43.700;-79.318;2023-02-08T10:45:05;27;24;
64138;PMS5003;50435;43.700;-79.318;2023-02-08T10:47:52;19;19;
64138;PMS5003;50435;43.700;-79.318;2023-02-08T10:50:23;26;24;
64138;PMS5003;50435;43.700;-79.318;2023-02-08T10:52:58;19;18;
64138;PMS5003;50435;43.700;-79.318;2023-02-08T10:55:28;26;24;
64138;PMS5003;50435;43.700;-79.318;2023-02-08T10:57:59;25;20;
64138;PMS5003;50435;43.700;-79.318;2023-02-08T11:00:30;22;21;
64138;PMS5003;50435;43.700;-79.318;2023-02-08T11:03:01;21;20;
64138;PMS5003;50435;43.700;-79.318;2023-02-08T11:05:40;21;21;
64138;PMS5003;50435;43.700;-79.318;2023-02-08T11:08:09;22;21;
64138;PMS5003;50435;43.700;-79.318;2023-02-08T11:10:38;24;20;
64138;PMS5003;50435;43.700;-79.318;2023-02-08T11:13:14;24;22;
64138;PMS5003;50435;43.700;-79.318;2023-02-08T11:15:46;21;21;
64138;PMS5003;50435;43.700;-79.318;2023-02-08T11:18:18;18;16;
64138;PMS5003;50435;43.700;-79.318;2023-02-08T11:20:48;20;20;
64138;PMS5003;50435;43.700;-79.318;2023-02-08T11:23:19;26;22;
64138;PMS5003;50435;43.700;-79.318;2023-02-08T11:25:50;25;25;
64138;PMS5003;50435;43.700;-79.318;2023-02-08T11:28:22;21;20;
64138;PMS5003;50435;43.700;-79.318;2023-02-08T11:30:54;20;20;
64138;PMS5003;50435;43.700;-79.318;2023-02-08T11:33:24;22;19;
64138;PMS5003;50435;43.700;-79.318;2023-02-08T11:35:57;22;22;
64138;PMS5003;50435;43.700;-79.318;2023-02-08T11:38:28;26;24;
64138;PMS5003;50435;43.700;-79.318;2023-02-08T11:40:57;25;20;
64138;PMS5003;50435;43.700;-79.318;2023-02-08T11:43:28;20;19;
64138;PMS5003;50435;43.700;-79.318;2023-02-08T11:45:57;19;19;
64138;PMS5003;50435;43.700;-79.318;2023-02-08T11:48:29;21;18;
64138;PMS5003;50435;43.700;-79.318;2023-02-08T11:51:03;17;17;
64138;PMS5003;50435;43.700;-79.318;2023-02-08T11:53:32;25;21;
64138;PMS5003;50435;43.700;-79.318;2023-02-08T11:56:04;19;18;
64138;PMS5003;50435;43.700;-79.318;2023-02-08T11:58:41;24;22;
64138;PMS5003;50435;43.700;-79.318;2023-02-08T12:01:21;22;21;
64138;PMS5003;50435;43.700;-79.318;2023-02-08T12:03:53;20;19;
64138;PMS5003;50435;43.700;-79.318;2023-02-08T12:06:32;24;20;
64138;PMS5003;50435;43.700;-79.318;2023-02-08T12:10:03;21;19;
64138;PMS5003;50435;43.700;-79.318;2023-02-08T12:12:48;19;19;
64138;PMS5003;50435;43.700;-79.318;2023-02-08T12:15:32;22;21;
64138;PMS5003;50435;43.700;-79.318;2023-02-08T12:18:13;23;19;
64138;PMS5003;50435;43.700;-79.318;2023-02-08T12:20:53;24;20;
64138;PMS5003;50435;43.700;-79.318;2023-02-08T12:23:36;24;20;
64138;PMS5003;50435;43.700;-79.318;2023-02-08T12:26:15;19;19;
64138;PMS5003;50435;43.700;-79.318;2023-02-08T12:28:53;24;21;
64138;PMS5003;50435;43.700;-79.318;2023-02-08T12:31:35;19;18;
64138;PMS5003;50435;43.700;-79.318;2023-02-08T12:34:13;27;22;
64138;PMS5003;50435;43.700;-79.318;2023-02-08T12:36:49;21;19;
64138;PMS5003;50435;43.700;-79.318;2023-02-08T12:39:28;25;22;
64138;PMS5003;50435;43.700;-79.318;2023-02-08T12:42:05;25;25;
64138;PMS5003;50435;43.700;-79.318;2023-02-08T12:44:52;24;20;
64138;PMS5003;50435;43.700;-79.318;2023-02-08T12:47:36;23;20;
64138;PMS5003;50435;43.700;-79.318;2023-02-08T12:50:13;23;21;
64138;PMS5003;50435;43.700;-79.318;2023-02-08T12:52:47;24;22;
64138;PMS5003;50435;43.700;-79.318;2023-02-08T12:55:20;20;20;
64138;PMS5003;50435;43.700;-79.318;2023-02-08T12:57:51;24;20;
64138;PMS5003;50435;43.700;-79.318;2023-02-08T13:00:24;25;24;
64138;PMS5003;50435;43.700;-79.318;2023-02-08T13:02:56;26;23;
64138;PMS5003;50435;43.700;-79.318;2023-02-08T13:05:32;23;19;
64138;PMS5003;50435;43.700;-79.318;2023-02-08T13:08:06;26;23;
64138;PMS5003;50435;43.700;-79.318;2023-02-08T13:10:43;19;17;
64138;PMS5003;50435;43.700;-79.318;2023-02-08T13:13:17;19;19;
64138;PMS5003;50435;43.700;-79.318;2023-02-08T13:15:50;23;21;
64138;PMS5003;50435;43.700;-79.318;2023-02-08T13:18:23;24;23;
64138;PMS5003;50435;43.700;-79.318;2023-02-08T13:20:55;24;24;
64138;PMS5003;50435;43.700;-79.318;2023-02-08T13:23:26;28;26;
64138;PMS5003;50435;43.700;-79.318;2023-02-08T13:25:59;25;21;
64138;PMS5003;50435;43.700;-79.318;2023-02-08T13:28:32;21;20;
64138;PMS5003;50435;43.700;-79.318;2023-02-08T13:31:00;30;24;
64138;PMS5003;50435;43.700;-79.318;2023-02-08T13:33:35;18;18;
64138;PMS5003;50435;43.700;-79.318;2023-02-08T13:36:10;22;22;
64138;PMS5003;50435;43.700;-79.318;2023-02-08T13:38:48;24;22;
64138;PMS5003;50435;43.700;-79.318;2023-02-08T13:41:18;24;24;
64138;PMS5003;50435;43.700;-79.318;2023-02-08T13:43:49;20;19;
64138;PMS5003;50435;43.700;-79.318;2023-02-08T13:46:20;27;22;
64138;PMS5003;50435;43.700;-79.318;2023-02-08T13:48:51;26;26;
64138;PMS5003;50435;43.700;-79.318;2023-02-08T13:51:52;21;21;
64138;PMS5003;50435;43.700;-79.318;2023-02-08T13:54:20;30;26;
64138;PMS5003;50435;43.700;-79.318;2023-02-08T13:56:48;25;22;
64138;PMS5003;50435;43.700;-79.318;2023-02-08T13:59:24;29;27;
64138;PMS5003;50435;43.700;-79.318;2023-02-08T14:02:26;27;26;
64138;PMS5003;50435;43.700;-79.318;2023-02-08T14:04:58;25;21;
64138;PMS5003;50435;43.700;-79.318;2023-02-08T14:08:06;27;22;
64138;PMS5003;50435;43.700;-79.318;2023-02-08T14:10:49;22;22;
64138;PMS5003;50435;43.700;-79.318;2023-02-08T14:13:27;28;24;
64138;PMS5003;50435;43.700;-79.318;2023-02-08T14:16:33;25;25;
64138;PMS5003;50435;43.700;-79.318;2023-02-08T14:19:02;24;21;
64138;PMS5003;50435;43.700;-79.318;2023-02-08T14:21:33;26;24;
64138;PMS5003;50435;43.700;-79.318;2023-02-08T14:24:04;24;24;
64138;PMS5003;50435;43.700;-79.318;2023-02-08T14:26:34;20;20;
64138;PMS5003;50435;43.700;-79.318;2023-02-08T14:29:04;25;20;
64138;PMS5003;50435;43.700;-79.318;2023-02-08T14:31:36;25;20;
64138;PMS5003;50435;43.700;-79.318;2023-02-08T14:34:14;21;20;
64138;PMS5003;50435;43.700;-79.318;2023-02-08T14:36:57;19;19;
64138;PMS5003;50435;43.700;-79.318;2023-02-08T14:39:26;21;21;
64138;PMS5003;50435;43.700;-79.318;2023-02-08T14:41:56;15;14;
64138;PMS5003;50435;43.700;-79.318;2023-02-08T14:44:43;22;20;
64138;PMS5003;50435;43.700;-79.318;2023-02-08T14:47:12;23;21;
64138;PMS5003;50435;43.700;-79.318;2023-02-08T14:50:17;20;18;
64138;PMS5003;50435;43.700;-79.318;2023-02-08T14:52:51;21;18;
64138;PMS5003;50435;43.700;-79.318;2023-02-08T14:55:24;21;20;
64138;PMS5003;50435;43.700;-79.318;2023-02-08T14:57:53;22;19;
64138;PMS5003;50435;43.700;-79.318;2023-02-08T15:00:22;18;17;
64138;PMS5003;50435;43.700;-79.318;2023-02-08T15:02:51;19;17;
64138;PMS5003;50435;43.700;-79.318;2023-02-08T15:05:20;18;17;
64138;PMS5003;50435;43.700;-79.318;2023-02-08T15:07:49;17;17;
64138;PMS5003;50435;43.700;-79.318;2023-02-08T15:10:20;18;18;
64138;PMS5003;50435;43.700;-79.318;2023-02-08T15:12:50;15;15;
64138;PMS5003;50435;43.700;-79.318;2023-02-08T15:15:22;19;18;
64138;PMS5003;50435;43.700;-79.318;2023-02-08T15:17:54;18;17;
64138;PMS5003;50435;43.700;-79.318;2023-02-08T15:20:24;15;14;
64138;PMS5003;50435;43.700;-79.318;2023-02-08T15:22:58;15;15;
64138;PMS5003;50435;43.700;-79.318;2023-02-08T15:25:27;20;19;
64138;PMS5003;50435;43.700;-79.318;2023-02-08T15:27:57;21;19;
64138;PMS5003;50435;43.700;-79.318;2023-02-08T15:30:27;18;18;
64138;PMS5003;50435;43.700;-79.318;2023-02-08T15:32:58;22;18;
64138;PMS5003;50435;43.700;-79.318;2023-02-08T15:35:26;18;18;
64138;PMS5003;50435;43.700;-79.318;2023-02-08T15:37:57;20;19;
64138;PMS5003;50435;43.700;-79.318;2023-02-08T15:40:26;19;15;
64138;PMS5003;50435;43.700;-79.318;2023-02-08T15:43:01;21;19;
64138;PMS5003;50435;43.700;-79.318;2023-02-08T15:45:30;21;16;
64138;PMS5003;50435;43.700;-79.318;2023-02-08T15:47:58;18;18;
64138;PMS5003;50435;43.700;-79.318;2023-02-08T15:50:27;23;20;
64138;PMS5003;50435;43.700;-79.318;2023-02-08T15:52:57;19;18;
64138;PMS5003;50435;43.700;-79.318;2023-02-08T15:55:28;19;19;
64138;PMS5003;50435;43.700;-79.318;2023-02-08T15:57:59;23;22;
64138;PMS5003;50435;43.700;-79.318;2023-02-08T16:00:31;22;21;
64138;PMS5003;50435;43.700;-79.318;2023-02-08T16:03:01;19;19;
64138;PMS5003;50435;43.700;-79.318;2023-02-08T16:05:32;22;22;
64138;PMS5003;50435;43.700;-79.318;2023-02-08T16:08:01;22;21;
64138;PMS5003;50435;43.700;-79.318;2023-02-08T16:10:30;20;16;
64138;PMS5003;50435;43.700;-79.318;2023-02-08T16:13:01;22;21;
64138;PMS5003;50435;43.700;-79.318;2023-02-08T16:15:33;24;20;